sensor_id;sensor_type;location;lat;lon;timestamp;pressure;altitude;pressure_sealevel;temperature;humidity
56074;BME280;41950;55.840;37.442;2024-01-27T00:02:03;99154.63;;;-5.53;85.30
56074;BME280;41950;55.840;37.442;2024-01-27T00:04:29;99509.38;;;-3.41;85.69
56074;BME280;41950;55.840;37.442;2024-01-27T00:06:55;99426.25;;;-3.96;85.58
56074;BME280;41950;55.840;37.442;2024-01-27T00:09:20;99330.34;;;-4.55;85.32
56074;BME280;41950;55.840;37.442;2024-01-27T00:11:48;99517.59;;;-3.48;85.78
56074;BME280;41950;55.840;37.442;2024-01-27T00:14:13;99405.13;;;-4.19;85.32
56074;BME280;41950;55.840;37.442;2024-01-27T00:16:39;99145.72;;;-5.66;85.34
56074;BME280;41950;55.840;37.442;2024-01-27T00:19:05;99343.88;;;-4.55;85.65
56074;BME280;41950;55.840;37.442;2024-01-27T00:21:30;99255.28;;;-5.00;85.29
56074;BME280;41950;55.840;37.442;2024-01-27T00:23:56;99310.47;;;-4.67;85.39
56074;BME280;41950;55.840;37.442;2024-01-27T00:26:26;99287.03;;;-4.63;85.44
56074;BME280;41950;55.840;37.442;2024-01-27T00:28:52;99218.59;;;-5.11;85.28
56074;BME280;41950;55.840;37.442;2024-01-27T00:31:18;99337.41;;;-4.47;85.30
56074;BME280;41950;55.840;37.442;2024-01-27T00:33:43;99511.75;;;-3.46;85.62
56074;BME280;41950;55.840;37.442;2024-01-27T00:36:09;99509.78;;;-3.54;85.31
56074;BME280;41950;55.840;37.442;2024-01-27T00:38:35;99449.06;;;-3.96;85.61
56074;BME280;41950;55.840;37.442;2024-01-27T00:41:01;99481.94;;;-3.75;85.52
56074;BME280;41950;55.840;37.442;2024-01-27T00:43:26;99320.44;;;-4.72;85.27
56074;BME280;41950;55.840;37.442;2024-01-27T00:45:52;99437.91;;;-4.01;85.38
56074;BME280;41950;55.840;37.442;2024-01-27T00:48:17;99346.13;;;-4.62;85.25
56074;BME280;41950;55.840;37.442;2024-01-27T00:50:44;99524.03;;;-3.56;85.47
56074;BME280;41950;55.840;37.442;2024-01-27T00:53:10;99467.19;;;-3.85;85.52
56074;BME280;41950;55.840;37.442;2024-01-27T00:55:35;99519.06;;;-3.55;85.51
56074;BME280;41950;55.840;37.442;2024-01-27T00:58:01;99465.38;;;-3.89;85.56
56074;BME280;41950;55.840;37.442;2024-01-27T01:00:27;99498.13;;;-3.71;85.55
56074;BME280;41950;55.840;37.442;2024-01-27T01:02:52;99505.69;;;-3.73;85.62
56074;BME280;41950;55.840;37.442;2024-01-27T01:05:18;99519.97;;;-3.53;85.44
56074;BME280;41950;55.840;37.442;2024-01-27T01:07:44;99406.66;;;-4.24;85.15
56074;BME280;41950;55.840;37.442;2024-01-27T01:10:09;99527.38;;;-3.57;85.05
56074;BME280;41950;55.840;37.442;2024-01-27T01:12:35;99364.19;;;-4.53;85.00
56074;BME280;41950;55.840;37.442;2024-01-27T01:15:04;99228.66;;;-5.35;84.80
56074;BME280;41950;55.840;37.442;2024-01-27T01:17:30;99397.06;;;-4.32;84.94
56074;BME280;41950;55.840;37.442;2024-01-27T01:19:55;99527.22;;;-3.62;84.88
56074;BME280;41950;55.840;37.442;2024-01-27T01:22:21;99382.00;;;-4.50;84.69
56074;BME280;41950;55.840;37.442;2024-01-27T01:24:47;99521.81;;;-3.71;84.98
56074;BME280;41950;55.840;37.442;2024-01-27T01:27:12;99496.03;;;-3.83;84.96
56074;BME280;41950;55.840;37.442;2024-01-27T01:29:38;99469.28;;;-3.97;85.04
56074;BME280;41950;55.840;37.442;2024-01-27T01:32:04;99522.97;;;-3.63;84.96
56074;BME280;41950;55.840;37.442;2024-01-27T01:34:29;99458.94;;;-4.03;84.68
56074;BME280;41950;55.840;37.442;2024-01-27T01:36:55;99528.94;;;-3.61;85.09
56074;BME280;41950;55.840;37.442;2024-01-27T01:39:23;99325.06;;;-4.84;85.03
56074;BME280;41950;55.840;37.442;2024-01-27T01:41:48;99480.06;;;-3.81;84.87
56074;BME280;41950;55.840;37.442;2024-01-27T01:44:15;99339.38;;;-4.62;84.74
56074;BME280;41950;55.840;37.442;2024-01-27T01:46:41;99521.41;;;-3.59;84.81
56074;BME280;41950;55.840;37.442;2024-01-27T01:49:07;99367.28;;;-4.60;84.58
56074;BME280;41950;55.840;37.442;2024-01-27T01:51:32;99332.94;;;-4.76;84.31
56074;BME280;41950;55.840;37.442;2024-01-27T01:53:58;99524.63;;;-3.63;84.53
56074;BME280;41950;55.840;37.442;2024-01-27T01:56:25;99473.56;;;-3.96;84.38
56074;BME280;41950;55.840;37.442;2024-01-27T01:58:50;99456.25;;;-4.08;84.28
56074;BME280;41950;55.840;37.442;2024-01-27T02:01:19;99458.78;;;-4.08;84.33
56074;BME280;41950;55.840;37.442;2024-01-27T02:06:19;99344.78;;;-4.75;84.34
56074;BME280;41950;55.840;37.442;2024-01-27T02:08:44;99486.28;;;-3.95;84.17
56074;BME280;41950;55.840;37.442;2024-01-27T02:11:10;99457.66;;;-4.15;84.51
56074;BME280;41950;55.840;37.442;2024-01-27T02:13:35;99333.22;;;-4.91;84.39
56074;BME280;41950;55.840;37.442;2024-01-27T02:16:01;99476.47;;;-4.10;84.32
56074;BME280;41950;55.840;37.442;2024-01-27T02:18:47;99468.53;;;-4.17;84.42
56074;BME280;41950;55.840;37.442;2024-01-27T02:21:12;99543.41;;;-3.82;84.44
56074;BME280;41950;55.840;37.442;2024-01-27T02:23:38;99466.38;;;-4.30;84.41
56074;BME280;41950;55.840;37.442;2024-01-27T02:26:04;99402.84;;;-4.80;84.44
56074;BME280;41950;55.840;37.442;2024-01-27T02:28:30;99436.88;;;-4.51;84.38
56074;BME280;41950;55.840;37.442;2024-01-27T02:30:59;99565.84;;;-3.69;84.29
56074;BME280;41950;55.840;37.442;2024-01-27T02:33:28;99567.41;;;-3.72;84.20
56074;BME280;41950;55.840;37.442;2024-01-27T02:35:54;99569.91;;;-3.74;84.23
56074;BME280;41950;55.840;37.442;2024-01-27T02:38:20;99546.47;;;-3.89;84.27
56074;BME280;41950;55.840;37.442;2024-01-27T02:40:49;99364.31;;;-4.93;84.09
56074;BME280;41950;55.840;37.442;2024-01-27T02:43:14;99546.38;;;-3.92;84.25
56074;BME280;41950;55.840;37.442;2024-01-27T02:45:40;99566.28;;;-3.81;84.27
56074;BME280;41950;55.840;37.442;2024-01-27T02:48:06;99508.13;;;-4.21;84.35
56074;BME280;41950;55.840;37.442;2024-01-27T02:50:31;99384.66;;;-4.92;84.10
56074;BME280;41950;55.840;37.442;2024-01-27T02:52:57;99572.75;;;-3.87;84.51
56074;BME280;41950;55.840;37.442;2024-01-27T02:55:22;99418.31;;;-4.72;84.25
56074;BME280;41950;55.840;37.442;2024-01-27T02:57:49;99565.91;;;-3.90;84.51
56074;BME280;41950;55.840;37.442;2024-01-27T03:00:15;99497.53;;;-4.33;84.42
56074;BME280;41950;55.840;37.442;2024-01-27T03:02:41;99480.34;;;-4.40;84.33
56074;BME280;41950;55.840;37.442;2024-01-27T03:05:07;99342.34;;;-5.38;83.98
56074;BME280;41950;55.840;37.442;2024-01-27T03:07:33;99572.31;;;-3.99;84.44
56074;BME280;41950;55.840;37.442;2024-01-27T03:09:58;99551.53;;;-4.12;84.45
56074;BME280;41950;55.840;37.442;2024-01-27T03:12:24;99424.69;;;-4.82;84.35
56074;BME280;41950;55.840;37.442;2024-01-27T03:14:49;99411.13;;;-5.05;84.49
56074;BME280;41950;55.840;37.442;2024-01-27T03:17:16;99530.97;;;-4.19;84.46
56074;BME280;41950;55.840;37.442;2024-01-27T03:19:42;99440.97;;;-4.75;84.16
56074;BME280;41950;55.840;37.442;2024-01-27T03:22:07;99571.22;;;-4.06;84.23
56074;BME280;41950;55.840;37.442;2024-01-27T03:24:33;99364.59;;;-5.50;84.24
56074;BME280;41950;55.840;37.442;2024-01-27T03:26:58;99580.03;;;-4.17;84.35
56074;BME280;41950;55.840;37.442;2024-01-27T03:29:24;99415.75;;;-5.15;84.35
56074;BME280;41950;55.840;37.442;2024-01-27T03:31:50;99358.66;;;-5.50;84.39
56074;BME280;41950;55.840;37.442;2024-01-27T03:34:15;99585.06;;;-4.19;84.44
56074;BME280;41950;55.840;37.442;2024-01-27T03:36:43;99584.38;;;-4.15;84.47
56074;BME280;41950;55.840;37.442;2024-01-27T03:39:08;99520.38;;;-4.52;84.26
56074;BME280;41950;55.840;37.442;2024-01-27T03:41:34;99300.69;;;-5.87;84.14
56074;BME280;41950;55.840;37.442;2024-01-27T03:44:00;99570.25;;;-4.30;84.42
56074;BME280;41950;55.840;37.442;2024-01-27T03:46:25;99386.69;;;-5.46;84.43
56074;BME280;41950;55.840;37.442;2024-01-27T03:48:51;99585.22;;;-4.14;84.62
56074;BME280;41950;55.840;37.442;2024-01-27T03:51:17;99533.00;;;-4.54;84.33
56074;BME280;41950;55.840;37.442;2024-01-27T03:53:42;99528.91;;;-4.71;84.29
56074;BME280;41950;55.840;37.442;2024-01-27T03:56:11;99478.03;;;-4.98;84.49
56074;BME280;41950;55.840;37.442;2024-01-27T03:58:37;99361.38;;;-5.67;84.22
56074;BME280;41950;55.840;37.442;2024-01-27T04:01:04;99440.41;;;-5.31;84.30
56074;BME280;41950;55.840;37.442;2024-01-27T04:03:30;99614.28;;;-4.27;84.54
56074;BME280;41950;55.840;37.442;2024-01-27T04:05:55;99496.88;;;-4.91;84.65
56074;BME280;41950;55.840;37.442;2024-01-27T04:08:21;99367.16;;;-5.69;84.40
56074;BME280;41950;55.840;37.442;2024-01-27T04:10:48;99437.25;;;-5.46;84.09
56074;BME280;41950;55.840;37.442;2024-01-27T04:13:13;99479.13;;;-5.12;84.33
56074;BME280;41950;55.840;37.442;2024-01-27T04:15:39;99391.72;;;-5.67;84.50
56074;BME280;41950;55.840;37.442;2024-01-27T04:18:07;99633.19;;;-4.19;84.77
56074;BME280;41950;55.840;37.442;2024-01-27T04:20:37;99638.38;;;-4.16;84.74
56074;BME280;41950;55.840;37.442;2024-01-27T04:23:03;99278.06;;;-6.26;84.25
56074;BME280;41950;55.840;37.442;2024-01-27T04:25:31;99364.38;;;-5.75;84.44
56074;BME280;41950;55.840;37.442;2024-01-27T04:27:56;99359.25;;;-5.77;84.59
56074;BME280;41950;55.840;37.442;2024-01-27T04:30:22;99678.47;;;-4.07;84.40
56074;BME280;41950;55.840;37.442;2024-01-27T04:32:48;99669.06;;;-4.10;84.33
56074;BME280;41950;55.840;37.442;2024-01-27T04:35:15;99671.50;;;-4.11;84.18
56074;BME280;41950;55.840;37.442;2024-01-27T04:37:41;99277.25;;;-6.44;83.66
56074;BME280;41950;55.840;37.442;2024-01-27T04:40:07;99276.47;;;-6.43;83.60
56074;BME280;41950;55.840;37.442;2024-01-27T04:42:34;99315.00;;;-6.28;83.51
56074;BME280;41950;55.840;37.442;2024-01-27T04:45:00;99504.56;;;-5.09;83.75
56074;BME280;41950;55.840;37.442;2024-01-27T04:47:26;99389.63;;;-5.96;83.52
56074;BME280;41950;55.840;37.442;2024-01-27T04:49:51;99569.53;;;-4.89;84.06
56074;BME280;41950;55.840;37.442;2024-01-27T04:52:17;99443.50;;;-5.57;83.90
56074;BME280;41950;55.840;37.442;2024-01-27T04:54:42;99489.28;;;-5.32;84.15
56074;BME280;41950;55.840;37.442;2024-01-27T04:57:08;99427.09;;;-5.67;84.18
56074;BME280;41950;55.840;37.442;2024-01-27T04:59:35;99672.84;;;-4.40;84.15
56074;BME280;41950;55.840;37.442;2024-01-27T05:02:01;99332.63;;;-6.30;84.02
56074;BME280;41950;55.840;37.442;2024-01-27T05:04:26;99507.72;;;-5.34;83.96
56074;BME280;41950;55.840;37.442;2024-01-27T05:06:53;99597.88;;;-4.77;84.38
56074;BME280;41950;55.840;37.442;2024-01-27T05:09:18;99491.06;;;-5.48;84.14
56074;BME280;41950;55.840;37.442;2024-01-27T05:11:44;99459.97;;;-5.67;84.06
56074;BME280;41950;55.840;37.442;2024-01-27T05:14:11;99508.06;;;-5.46;84.27
56074;BME280;41950;55.840;37.442;2024-01-27T05:16:36;99600.34;;;-4.98;84.37
56074;BME280;41950;55.840;37.442;2024-01-27T05:19:02;99631.91;;;-4.70;84.44
56074;BME280;41950;55.840;37.442;2024-01-27T05:21:28;99678.66;;;-4.43;84.68
56074;BME280;41950;55.840;37.442;2024-01-27T05:23:54;99684.59;;;-4.42;84.58
56074;BME280;41950;55.840;37.442;2024-01-27T05:26:20;99552.09;;;-5.21;84.59
56074;BME280;41950;55.840;37.442;2024-01-27T05:28:46;99513.38;;;-5.40;84.31
56074;BME280;41950;55.840;37.442;2024-01-27T05:31:12;99542.66;;;-5.45;84.34
56074;BME280;41950;55.840;37.442;2024-01-27T05:33:40;99306.06;;;-6.78;84.13
56074;BME280;41950;55.840;37.442;2024-01-27T05:36:06;99420.28;;;-6.08;84.39
56074;BME280;41950;55.840;37.442;2024-01-27T05:38:31;99496.88;;;-5.70;84.52
56074;BME280;41950;55.840;37.442;2024-01-27T05:41:00;99631.88;;;-4.91;84.70
56074;BME280;41950;55.840;37.442;2024-01-27T05:43:26;99705.81;;;-4.59;84.93
56074;BME280;41950;55.840;37.442;2024-01-27T05:45:52;99600.81;;;-5.25;84.81
56074;BME280;41950;55.840;37.442;2024-01-27T05:48:17;99621.63;;;-5.13;85.11
56074;BME280;41950;55.840;37.442;2024-01-27T05:50:43;99685.81;;;-4.73;85.13
56074;BME280;41950;55.840;37.442;2024-01-27T05:53:10;99667.16;;;-4.94;85.05
56074;BME280;41950;55.840;37.442;2024-01-27T05:55:36;99645.06;;;-4.98;85.16
56074;BME280;41950;55.840;37.442;2024-01-27T05:58:01;99671.97;;;-4.81;85.23
56074;BME280;41950;55.840;37.442;2024-01-27T06:00:27;99612.44;;;-5.11;85.13
56074;BME280;41950;55.840;37.442;2024-01-27T06:02:52;99660.25;;;-4.79;84.98
56074;BME280;41950;55.840;37.442;2024-01-27T06:05:18;99669.63;;;-4.76;85.24
56074;BME280;41950;55.840;37.442;2024-01-27T06:07:44;99708.81;;;-4.49;85.24
56074;BME280;41950;55.840;37.442;2024-01-27T06:10:11;99667.59;;;-4.65;85.19
56074;BME280;41950;55.840;37.442;2024-01-27T06:12:38;99695.53;;;-4.43;85.05
56074;BME280;41950;55.840;37.442;2024-01-27T06:15:04;99736.97;;;-4.22;85.04
56074;BME280;41950;55.840;37.442;2024-01-27T06:17:31;99688.72;;;-4.44;85.04
56074;BME280;41950;55.840;37.442;2024-01-27T06:19:56;99729.34;;;-4.02;85.07
56074;BME280;41950;55.840;37.442;2024-01-27T06:22:22;99655.72;;;-4.46;84.58
56074;BME280;41950;55.840;37.442;2024-01-27T06:24:48;99737.94;;;-3.99;84.70
56074;BME280;41950;55.840;37.442;2024-01-27T06:27:13;99719.47;;;-4.16;84.48
56074;BME280;41950;55.840;37.442;2024-01-27T06:29:39;99736.94;;;-4.02;84.56
56074;BME280;41950;55.840;37.442;2024-01-27T06:32:05;99742.44;;;-3.92;84.30
56074;BME280;41950;55.840;37.442;2024-01-27T06:34:32;99750.00;;;-3.93;84.18
56074;BME280;41950;55.840;37.442;2024-01-27T06:36:58;99738.50;;;-4.06;83.90
56074;BME280;41950;55.840;37.442;2024-01-27T06:39:24;99755.81;;;-3.96;83.95
56074;BME280;41950;55.840;37.442;2024-01-27T06:41:50;99686.78;;;-4.30;83.98
56074;BME280;41950;55.840;37.442;2024-01-27T06:44:15;99671.28;;;-4.38;83.58
56074;BME280;41950;55.840;37.442;2024-01-27T06:46:41;99767.34;;;-3.83;83.55
56074;BME280;41950;55.840;37.442;2024-01-27T06:49:07;99719.09;;;-4.06;83.45
56074;BME280;41950;55.840;37.442;2024-01-27T06:51:35;99636.53;;;-4.61;83.36
56074;BME280;41950;55.840;37.442;2024-01-27T06:54:03;99734.59;;;-3.98;83.33
56074;BME280;41950;55.840;37.442;2024-01-27T06:56:31;99590.78;;;-4.85;83.28
56074;BME280;41950;55.840;37.442;2024-01-27T06:59:14;99646.28;;;-4.50;82.97
56074;BME280;41950;55.840;37.442;2024-01-27T07:01:51;99585.13;;;-4.99;82.32
56074;BME280;41950;55.840;37.442;2024-01-27T07:04:17;99566.88;;;-5.11;82.31
56074;BME280;41950;55.840;37.442;2024-01-27T07:06:48;99447.88;;;-5.74;82.07
56074;BME280;41950;55.840;37.442;2024-01-27T07:09:14;99533.19;;;-5.30;81.94
56074;BME280;41950;55.840;37.442;2024-01-27T07:11:45;99702.06;;;-4.29;81.84
56074;BME280;41950;55.840;37.442;2024-01-27T07:14:13;99549.38;;;-5.07;81.87
56074;BME280;41950;55.840;37.442;2024-01-27T07:16:40;99730.03;;;-4.07;81.59
56074;BME280;41950;55.840;37.442;2024-01-27T07:19:08;99673.06;;;-4.36;81.62
56074;BME280;41950;55.840;37.442;2024-01-27T07:21:38;99622.78;;;-4.67;81.39
56074;BME280;41950;55.840;37.442;2024-01-27T07:24:04;99681.97;;;-4.24;81.61
56074;BME280;41950;55.840;37.442;2024-01-27T07:26:30;99773.59;;;-3.54;81.33
56074;BME280;41950;55.840;37.442;2024-01-27T07:28:57;99798.38;;;-3.47;81.16
56074;BME280;41950;55.840;37.442;2024-01-27T07:31:23;99623.31;;;-4.54;80.96
56074;BME280;41950;55.840;37.442;2024-01-27T07:33:50;99562.28;;;-5.01;80.79
56074;BME280;41950;55.840;37.442;2024-01-27T07:39:16;99563.44;;;-5.33;80.50
56074;BME280;41950;55.840;37.442;2024-01-27T07:41:44;99817.56;;;-3.75;80.86
56074;BME280;41950;55.840;37.442;2024-01-27T07:44:12;99813.41;;;-3.72;80.69
56074;BME280;41950;55.840;37.442;2024-01-27T07:46:44;99771.69;;;-4.00;80.44
56074;BME280;41950;55.840;37.442;2024-01-27T07:49:09;99825.78;;;-3.80;80.50
56074;BME280;41950;55.840;37.442;2024-01-27T07:51:38;99816.63;;;-3.77;80.32
56074;BME280;41950;55.840;37.442;2024-01-27T07:54:04;99773.63;;;-3.94;80.46
56074;BME280;41950;55.840;37.442;2024-01-27T07:56:30;99737.56;;;-4.08;80.23
56074;BME280;41950;55.840;37.442;2024-01-27T07:58:55;99743.88;;;-3.98;80.19
56074;BME280;41950;55.840;37.442;2024-01-27T08:01:21;99734.16;;;-4.09;79.91
56074;BME280;41950;55.840;37.442;2024-01-27T08:03:47;99834.72;;;-3.48;79.84
56074;BME280;41950;55.840;37.442;2024-01-27T08:06:17;99760.56;;;-4.03;79.74
56074;BME280;41950;55.840;37.442;2024-01-27T08:08:47;99817.00;;;-3.67;79.77
56074;BME280;41950;55.840;37.442;2024-01-27T08:11:15;99794.47;;;-3.81;79.69
56074;BME280;41950;55.840;37.442;2024-01-27T08:13:42;99683.41;;;-4.50;79.71
56074;BME280;41950;55.840;37.442;2024-01-27T08:16:08;99829.63;;;-3.48;79.89
56074;BME280;41950;55.840;37.442;2024-01-27T08:18:35;99843.91;;;-3.29;79.67
56074;BME280;41950;55.840;37.442;2024-01-27T08:21:03;99667.94;;;-4.37;79.55
56074;BME280;41950;55.840;37.442;2024-01-27T08:23:29;99797.81;;;-3.61;79.13
56074;BME280;41950;55.840;37.442;2024-01-27T08:25:54;99830.25;;;-3.54;79.31
56074;BME280;41950;55.840;37.442;2024-01-27T08:28:20;99813.84;;;-3.62;79.53
56074;BME280;41950;55.840;37.442;2024-01-27T08:30:46;99631.22;;;-4.66;79.68
56074;BME280;41950;55.840;37.442;2024-01-27T08:33:11;99730.22;;;-4.02;79.61
56074;BME280;41950;55.840;37.442;2024-01-27T08:35:39;99875.38;;;-3.26;79.58
56074;BME280;41950;55.840;37.442;2024-01-27T08:38:06;99689.31;;;-4.30;79.42
56074;BME280;41950;55.840;37.442;2024-01-27T08:40:32;99769.53;;;-3.91;79.27
56074;BME280;41950;55.840;37.442;2024-01-27T08:42:58;99668.09;;;-4.53;79.16
56074;BME280;41950;55.840;37.442;2024-01-27T08:45:23;99750.97;;;-4.11;79.39
56074;BME280;41950;55.840;37.442;2024-01-27T08:47:51;99809.56;;;-3.63;79.36
56074;BME280;41950;55.840;37.442;2024-01-27T08:50:16;99649.44;;;-4.55;78.99
56074;BME280;41950;55.840;37.442;2024-01-27T08:52:44;99799.38;;;-3.64;79.04
56074;BME280;41950;55.840;37.442;2024-01-27T08:55:11;99672.19;;;-4.36;79.16
56074;BME280;41950;55.840;37.442;2024-01-27T08:57:36;99870.31;;;-3.26;78.88
56074;BME280;41950;55.840;37.442;2024-01-27T09:00:02;99860.63;;;-3.34;78.92
56074;BME280;41950;55.840;37.442;2024-01-27T09:02:29;99868.19;;;-3.36;78.81
56074;BME280;41950;55.840;37.442;2024-01-27T09:04:57;99864.66;;;-3.39;78.90
56074;BME280;41950;55.840;37.442;2024-01-27T09:07:23;99741.84;;;-4.07;79.02
56074;BME280;41950;55.840;37.442;2024-01-27T09:09:52;99765.25;;;-3.92;78.89
56074;BME280;41950;55.840;37.442;2024-01-27T09:12:17;99839.28;;;-3.39;78.88
56074;BME280;41950;55.840;37.442;2024-01-27T09:14:43;99833.22;;;-3.43;78.61
56074;BME280;41950;55.840;37.442;2024-01-27T09:17:09;99865.47;;;-3.20;78.52
56074;BME280;41950;55.840;37.442;2024-01-27T09:19:35;99819.50;;;-3.48;78.45
56074;BME280;41950;55.840;37.442;2024-01-27T09:22:00;99871.59;;;-3.15;78.44
56074;BME280;41950;55.840;37.442;2024-01-27T09:24:26;99836.63;;;-3.43;78.24
56074;BME280;41950;55.840;37.442;2024-01-27T09:26:51;99874.88;;;-3.17;78.34
56074;BME280;41950;55.840;37.442;2024-01-27T09:29:17;99865.03;;;-3.30;78.23
56074;BME280;41950;55.840;37.442;2024-01-27T09:31:43;99775.81;;;-3.83;78.15
56074;BME280;41950;55.840;37.442;2024-01-27T09:34:11;99811.31;;;-3.62;78.38
56074;BME280;41950;55.840;37.442;2024-01-27T09:36:37;99844.47;;;-3.36;78.10
56074;BME280;41950;55.840;37.442;2024-01-27T09:39:03;99866.47;;;-3.16;78.52
56074;BME280;41950;55.840;37.442;2024-01-27T09:41:31;99723.47;;;-4.01;78.16
56074;BME280;41950;55.840;37.442;2024-01-27T09:44:01;99888.63;;;-2.91;78.02
56074;BME280;41950;55.840;37.442;2024-01-27T09:46:28;99834.56;;;-3.30;77.85
56074;BME280;41950;55.840;37.442;2024-01-27T09:48:54;99723.41;;;-3.82;77.59
56074;BME280;41950;55.840;37.442;2024-01-27T09:51:20;99779.69;;;-3.49;77.52
56074;BME280;41950;55.840;37.442;2024-01-27T09:53:45;99841.78;;;-3.20;77.54
56074;BME280;41950;55.840;37.442;2024-01-27T09:56:12;99911.09;;;-2.80;77.00
56074;BME280;41950;55.840;37.442;2024-01-27T09:58:45;99801.41;;;-3.35;77.43
56074;BME280;41950;55.840;37.442;2024-01-27T10:01:11;99607.56;;;-4.67;77.30
56074;BME280;41950;55.840;37.442;2024-01-27T10:03:41;99901.97;;;-2.74;77.38
56074;BME280;41950;55.840;37.442;2024-01-27T10:06:09;99752.53;;;-3.72;77.03
56074;BME280;41950;55.840;37.442;2024-01-27T10:08:35;99905.41;;;-2.95;77.34
56074;BME280;41950;55.840;37.442;2024-01-27T10:11:07;99735.81;;;-3.88;77.41
56074;BME280;41950;55.840;37.442;2024-01-27T10:13:33;99860.69;;;-3.12;77.43
56074;BME280;41950;55.840;37.442;2024-01-27T10:16:03;99855.00;;;-3.06;77.21
56074;BME280;41950;55.840;37.442;2024-01-27T10:18:29;99835.75;;;-3.22;76.89
56074;BME280;41950;55.840;37.442;2024-01-27T10:20:55;99776.19;;;-3.53;76.85
56074;BME280;41950;55.840;37.442;2024-01-27T10:23:21;99800.06;;;-3.48;76.92
56074;BME280;41950;55.840;37.442;2024-01-27T10:25:47;99908.22;;;-2.66;77.02
56074;BME280;41950;55.840;37.442;2024-01-27T10:28:13;99792.75;;;-3.40;76.20
56074;BME280;41950;55.840;37.442;2024-01-27T10:31:10;99654.59;;;-4.33;76.82
56074;BME280;41950;55.840;37.442;2024-01-27T10:33:36;99706.47;;;-4.04;76.43
56074;BME280;41950;55.840;37.442;2024-01-27T10:36:02;99760.06;;;-3.95;76.92
56074;BME280;41950;55.840;37.442;2024-01-27T10:38:37;99634.28;;;-4.54;76.82
56074;BME280;41950;55.840;37.442;2024-01-27T10:41:07;99745.84;;;-3.91;76.53
56074;BME280;41950;55.840;37.442;2024-01-27T10:43:36;99633.50;;;-4.72;76.70
56074;BME280;41950;55.840;37.442;2024-01-27T10:46:08;99935.13;;;-2.92;77.38
56074;BME280;41950;55.840;37.442;2024-01-27T10:48:37;99852.47;;;-3.48;77.55
56074;BME280;41950;55.840;37.442;2024-01-27T10:51:12;99936.59;;;-2.76;77.56
56074;BME280;41950;55.840;37.442;2024-01-27T10:53:42;99937.47;;;-2.76;77.16
56074;BME280;41950;55.840;37.442;2024-01-27T10:56:10;99872.28;;;-3.19;77.14
56074;BME280;41950;55.840;37.442;2024-01-27T10:58:35;99920.19;;;-3.05;77.38
56074;BME280;41950;55.840;37.442;2024-01-27T11:01:12;99951.06;;;-2.96;77.67
56074;BME280;41950;55.840;37.442;2024-01-27T11:03:39;99948.19;;;-3.04;77.75
56074;BME280;41950;55.840;37.442;2024-01-27T11:06:08;99953.88;;;-3.09;77.71
56074;BME280;41950;55.840;37.442;2024-01-27T11:08:34;99893.75;;;-3.52;78.03
56074;BME280;41950;55.840;37.442;2024-01-27T11:11:03;99897.59;;;-3.41;77.87
56074;BME280;41950;55.840;37.442;2024-01-27T11:13:33;99921.72;;;-3.30;77.90
56074;BME280;41950;55.840;37.442;2024-01-27T11:15:59;99839.50;;;-3.75;78.07
56074;BME280;41950;55.840;37.442;2024-01-27T11:18:29;99868.84;;;-3.61;77.49
56074;BME280;41950;55.840;37.442;2024-01-27T11:20:55;99704.09;;;-4.60;77.41
56074;BME280;41950;55.840;37.442;2024-01-27T11:23:32;99706.56;;;-4.62;77.55
56074;BME280;41950;55.840;37.442;2024-01-27T11:26:10;99829.97;;;-3.81;77.69
56074;BME280;41950;55.840;37.442;2024-01-27T11:28:38;99797.78;;;-4.02;77.73
56074;BME280;41950;55.840;37.442;2024-01-27T11:31:04;99916.06;;;-3.24;77.81
56074;BME280;41950;55.840;37.442;2024-01-27T11:33:30;99977.94;;;-2.81;77.30
56074;BME280;41950;55.840;37.442;2024-01-27T11:36:05;99981.09;;;-2.86;77.13
56074;BME280;41950;55.840;37.442;2024-01-27T11:38:31;99924.25;;;-3.30;77.15
56074;BME280;41950;55.840;37.442;2024-01-27T11:41:00;99969.97;;;-3.09;77.18
56074;BME280;41950;55.840;37.442;2024-01-27T11:43:26;99893.47;;;-3.58;77.36
56074;BME280;41950;55.840;37.442;2024-01-27T11:45:58;99981.63;;;-3.14;77.25
56074;BME280;41950;55.840;37.442;2024-01-27T11:48:24;99995.88;;;-3.18;77.43
56074;BME280;41950;55.840;37.442;2024-01-27T11:51:06;99974.09;;;-3.32;77.75
56074;BME280;41950;55.840;37.442;2024-01-27T11:53:34;99995.66;;;-3.22;77.81
56074;BME280;41950;55.840;37.442;2024-01-27T11:56:00;99977.31;;;-3.36;77.91
56074;BME280;41950;55.840;37.442;2024-01-27T11:58:27;99996.53;;;-3.22;77.71
56074;BME280;41950;55.840;37.442;2024-01-27T12:00:53;99983.19;;;-3.37;77.88
56074;BME280;41950;55.840;37.442;2024-01-27T12:03:23;100007.22;;;-3.29;78.12
56074;BME280;41950;55.840;37.442;2024-01-27T12:05:49;99966.38;;;-3.54;78.22
56074;BME280;41950;55.840;37.442;2024-01-27T12:08:16;100004.53;;;-3.32;78.27
56074;BME280;41950;55.840;37.442;2024-01-27T12:10:44;100017.28;;;-3.30;78.19
56074;BME280;41950;55.840;37.442;2024-01-27T12:13:10;100023.13;;;-3.33;78.47
56074;BME280;41950;55.840;37.442;2024-01-27T12:15:36;99950.09;;;-3.79;78.35
56074;BME280;41950;55.840;37.442;2024-01-27T12:18:05;99935.63;;;-3.81;78.69
56074;BME280;41950;55.840;37.442;2024-01-27T12:20:31;99856.53;;;-4.30;78.46
56074;BME280;41950;55.840;37.442;2024-01-27T12:23:06;100037.97;;;-3.23;78.68
56074;BME280;41950;55.840;37.442;2024-01-27T12:25:35;99997.69;;;-3.54;78.77
56074;BME280;41950;55.840;37.442;2024-01-27T12:28:05;100047.25;;;-3.23;78.85
56074;BME280;41950;55.840;37.442;2024-01-27T12:30:36;100004.06;;;-3.62;78.84
56074;BME280;41950;55.840;37.442;2024-01-27T12:33:01;100060.88;;;-3.21;78.91
56074;BME280;41950;55.840;37.442;2024-01-27T12:35:34;100075.97;;;-3.24;78.92
56074;BME280;41950;55.840;37.442;2024-01-27T12:37:59;100056.84;;;-3.35;79.04
56074;BME280;41950;55.840;37.442;2024-01-27T12:40:26;100029.44;;;-3.62;79.20
56074;BME280;41950;55.840;37.442;2024-01-27T12:42:52;100009.22;;;-3.80;79.33
56074;BME280;41950;55.840;37.442;2024-01-27T12:45:17;100082.16;;;-3.37;79.51
56074;BME280;41950;55.840;37.442;2024-01-27T12:47:43;100031.06;;;-3.64;79.46
56074;BME280;41950;55.840;37.442;2024-01-27T12:50:09;100085.44;;;-3.39;79.56
56074;BME280;41950;55.840;37.442;2024-01-27T12:52:36;100025.97;;;-3.83;79.51
56074;BME280;41950;55.840;37.442;2024-01-27T12:55:02;100098.44;;;-3.51;79.72